createdAt,value
2023-02-25T00:01:29.059Z,66.59
2023-02-25T00:03:57.215Z,66.98
2023-02-25T00:06:25.911Z,67.50
2023-02-25T00:08:54.695Z,67.74
2023-02-25T00:11:23.902Z,67.58
2023-02-25T00:13:51.783Z,67.90
2023-02-25T00:16:21.339Z,67.67
2023-02-25T00:18:54.339Z,67.68
2023-02-25T00:21:22.563Z,67.19
2023-02-25T00:23:51.508Z,67.38
2023-02-25T00:26:19.535Z,67.64
2023-02-25T00:28:48.684Z,67.83
2023-02-25T00:31:21.770Z,67.24
2023-02-25T00:33:50.482Z,67.56
2023-02-25T00:36:22.299Z,67.75
2023-02-25T00:38:55.800Z,67.35
2023-02-25T00:41:28.929Z,66.97
2023-02-25T00:44:00.536Z,67.51
2023-02-25T00:46:30.440Z,66.90
2023-02-25T00:48:59.258Z,67.56
2023-02-25T00:51:30.035Z,67.65
2023-02-25T00:53:57.855Z,67.37
2023-02-25T00:56:26.726Z,67.92
2023-02-25T00:58:54.972Z,67.37
2023-02-25T01:01:31.344Z,67.54
2023-02-25T01:04:00.096Z,67.90
2023-02-25T01:06:29.343Z,67.67
2023-02-25T01:08:59.975Z,67.86
2023-02-25T01:11:33.382Z,68.10
2023-02-25T01:14:07.138Z,68.08
2023-02-25T01:16:35.559Z,67.70
2023-02-25T01:19:09.320Z,66.82
2023-02-25T01:21:40.781Z,66.84
2023-02-25T01:24:18.454Z,67.33
2023-02-25T01:26:47.536Z,66.02
2023-02-25T01:29:18.020Z,66.25
2023-02-25T01:31:46.692Z,65.95
2023-02-25T01:34:16.988Z,66.59
2023-02-25T01:36:45.789Z,67.11
2023-02-25T01:39:16.547Z,67.60
2023-02-25T01:41:51.303Z,67.72
2023-02-25T01:44:21.687Z,68.08
2023-02-25T01:46:51.471Z,68.04
2023-02-25T01:49:44.334Z,67.79
2023-02-25T01:52:21.970Z,68.23
2023-02-25T01:54:56.485Z,67.09
2023-02-25T01:57:25.256Z,67.05
2023-02-25T01:59:55.187Z,67.25
2023-02-25T02:02:26.596Z,66.49
2023-02-25T02:04:55.136Z,66.14
2023-02-25T02:07:25.048Z,67.19
2023-02-25T02:09:58.856Z,67.41
2023-02-25T02:12:31.930Z,67.70
2023-02-25T02:15:04.975Z,67.42
2023-02-25T02:17:51.457Z,67.64
2023-02-25T02:20:27.554Z,67.54
2023-02-25T02:23:34.294Z,66.62
2023-02-25T02:26:15.104Z,66.78
2023-02-25T02:29:27.564Z,67.20
2023-02-25T02:32:19.768Z,67.15
2023-02-25T02:35:15.888Z,67.72
2023-02-25T02:37:53.184Z,67.08
2023-02-25T02:40:26.718Z,66.55
2023-02-25T02:43:07.847Z,67.75
2023-02-25T02:45:49.953Z,68.27
2023-02-25T02:48:34.380Z,68.89
2023-02-25T02:51:05.481Z,68.13
2023-02-25T02:53:38.456Z,67.95
2023-02-25T02:56:09.583Z,66.98
2023-02-25T02:58:58.032Z,67.14
2023-02-25T03:01:35.295Z,66.73
2023-02-25T03:04:06.497Z,66.56
2023-02-25T03:06:40.030Z,66.89
2023-02-25T03:09:15.622Z,66.78
2023-02-25T03:11:46.504Z,66.99
2023-02-25T03:14:15.260Z,66.53
2023-02-25T03:16:53.375Z,66.22
2023-02-25T03:19:28.965Z,65.89
2023-02-25T03:22:05.127Z,65.96
2023-02-25T03:24:39.854Z,66.15
2023-02-25T03:27:44.388Z,65.85
2023-02-25T03:30:38.066Z,65.85
2023-02-25T03:33:05.632Z,65.70
2023-02-25T03:35:35.744Z,67.03
2023-02-25T03:38:08.945Z,68.44
2023-02-25T03:40:38.846Z,68.74
2023-02-25T03:43:16.546Z,70.62
2023-02-25T03:45:45.637Z,74.91
2023-02-25T03:48:17.393Z,77.16
2023-02-25T03:50:49.132Z,76.13
2023-02-25T03:53:17.005Z,83.15
2023-02-25T03:55:54.558Z,88.70
2023-02-25T03:58:22.524Z,91.91
2023-02-25T04:00:55.150Z,95.42
2023-02-25T04:03:25.573Z,100.00
2023-02-25T04:05:54.982Z,100.00
2023-02-25T04:08:23.090Z,100.00
2023-02-25T04:10:51.659Z,100.00
2023-02-25T04:13:21.281Z,100.00
2023-02-25T04:15:50.429Z,100.00
2023-02-25T04:18:18.147Z,100.00
2023-02-25T04:20:48.245Z,100.00
2023-02-25T04:23:17.040Z,100.00
2023-02-25T04:25:44.719Z,100.00
2023-02-25T04:28:12.539Z,100.00
2023-02-25T04:30:40.302Z,100.00
2023-02-25T04:33:08.299Z,100.00
2023-02-25T04:35:37.854Z,100.00
2023-02-25T04:38:08.075Z,96.54
2023-02-25T04:40:37.178Z,83.88
2023-02-25T04:43:04.980Z,74.97
2023-02-25T04:45:33.006Z,67.07
2023-02-25T04:48:00.819Z,63.43
2023-02-25T04:50:30.208Z,58.77
2023-02-25T04:53:02.606Z,56.74
2023-02-25T04:55:31.776Z,55.26
2023-02-25T04:58:00.871Z,55.73
2023-02-25T05:00:28.586Z,57.13
2023-02-25T05:02:57.105Z,57.73
2023-02-25T05:05:24.643Z,59.58
2023-02-25T05:07:52.693Z,62.86
2023-02-25T05:10:20.631Z,65.68
2023-02-25T05:12:48.606Z,66.43
2023-02-25T05:15:16.737Z,65.76
2023-02-25T05:17:44.497Z,67.84
2023-02-25T05:20:14.075Z,68.40
2023-02-25T05:22:42.918Z,66.50
2023-02-25T05:25:12.924Z,67.31
2023-02-25T05:27:44.477Z,66.82
2023-02-25T05:30:16.336Z,63.00
2023-02-25T05:32:45.139Z,65.12
2023-02-25T05:35:13.579Z,68.18
2023-02-25T05:37:41.328Z,67.70
2023-02-25T05:40:10.159Z,66.50
2023-02-25T05:42:38.634Z,65.85
2023-02-25T05:45:09.390Z,70.12
2023-02-25T05:47:36.967Z,68.57
2023-02-25T05:50:04.895Z,68.52
2023-02-25T05:52:32.626Z,71.60
2023-02-25T05:55:00.219Z,68.87
2023-02-25T05:57:27.686Z,69.59
2023-02-25T05:59:55.168Z,69.19
2023-02-25T06:02:22.809Z,65.15
2023-02-25T06:04:53.901Z,64.44
2023-02-25T06:07:21.628Z,63.81
2023-02-25T06:09:49.129Z,59.42
2023-02-25T06:12:16.774Z,53.47
2023-02-25T06:14:44.184Z,51.65
2023-02-25T06:17:12.262Z,48.24
2023-02-25T06:19:39.714Z,50.21
2023-02-25T06:22:07.420Z,46.12
2023-02-25T06:24:34.940Z,41.92
2023-02-25T06:27:02.618Z,40.22
2023-02-25T06:29:30.265Z,37.26
2023-02-25T06:31:57.933Z,36.54
2023-02-25T06:34:25.697Z,34.03
2023-02-25T06:36:53.248Z,35.76
2023-02-25T06:39:20.838Z,32.83
2023-02-25T06:41:49.798Z,35.25
2023-02-25T06:44:17.267Z,31.58
2023-02-25T06:46:44.961Z,33.14
2023-02-25T06:49:13.077Z,33.36
2023-02-25T06:51:40.566Z,33.46
2023-02-25T06:54:08.200Z,28.46
2023-02-25T06:56:35.743Z,30.32
2023-02-25T06:59:03.317Z,29.43
2023-02-25T07:01:31.296Z,30.25
2023-02-25T07:03:58.842Z,29.16
2023-02-25T07:06:26.624Z,29.11
2023-02-25T07:08:54.346Z,27.48
2023-02-25T07:11:25.238Z,28.63
2023-02-25T07:13:53.043Z,27.63
2023-02-25T07:16:21.265Z,29.02
2023-02-25T07:18:49.128Z,26.01
2023-02-25T07:21:16.852Z,27.61
2023-02-25T07:23:44.672Z,27.79
2023-02-25T07:26:14.218Z,27.12
2023-02-25T07:28:43.900Z,27.58
2023-02-25T07:31:17.646Z,29.47
2023-02-25T07:33:46.378Z,27.42
2023-02-25T07:36:15.306Z,28.39
2023-02-25T07:38:43.409Z,24.68
2023-02-25T07:41:15.691Z,24.45
2023-02-25T07:43:46.200Z,24.94
2023-02-25T07:46:16.894Z,24.21
2023-02-25T07:48:54.883Z,26.92
2023-02-25T07:51:25.654Z,25.75
2023-02-25T07:56:39.647Z,27.50
2023-02-25T07:59:13.725Z,29.05
2023-02-25T08:01:45.551Z,26.06
2023-02-25T08:04:16.697Z,26.95
2023-02-25T08:06:47.770Z,28.15
2023-02-25T08:09:16.568Z,28.09
2023-02-25T08:11:48.636Z,32.66
2023-02-25T08:14:18.883Z,26.18
2023-02-25T08:16:47.379Z,28.25
2023-02-25T08:19:16.867Z,29.49
2023-02-25T08:21:45.126Z,29.74
2023-02-25T08:24:17.212Z,27.73
2023-02-25T08:26:45.865Z,27.88
2023-02-25T08:29:19.822Z,28.93
2023-02-25T08:31:49.524Z,28.63
2023-02-25T08:34:17.144Z,28.95
2023-02-25T08:36:45.377Z,29.99
2023-02-25T08:39:15.979Z,30.12
2023-02-25T08:41:44.787Z,30.50
2023-02-25T08:44:12.909Z,31.14
2023-02-25T08:46:41.962Z,32.09
2023-02-25T08:49:10.839Z,32.06
2023-02-25T08:51:42.469Z,32.60
2023-02-25T08:54:14.845Z,31.92
2023-02-25T08:56:45.355Z,32.19
2023-02-25T08:59:15.914Z,32.89
2023-02-25T09:01:47.617Z,33.56
2023-02-25T09:04:24.880Z,33.17
2023-02-25T09:06:54.613Z,32.68
2023-02-25T09:09:22.946Z,32.49
2023-02-25T09:11:51.145Z,33.51
2023-02-25T09:14:19.917Z,32.98
2023-02-25T09:16:47.856Z,32.35
2023-02-25T09:19:18.246Z,33.02
2023-02-25T09:21:50.626Z,35.26
2023-02-25T09:24:18.571Z,34.76
2023-02-25T09:26:47.040Z,35.44
2023-02-25T09:29:14.691Z,35.91
2023-02-25T09:31:42.495Z,36.11
2023-02-25T09:34:15.617Z,36.74
2023-02-25T09:36:43.503Z,35.92
2023-02-25T09:39:13.264Z,35.43
2023-02-25T09:42:01.499Z,35.23
2023-02-25T09:44:39.722Z,35.72
2023-02-25T09:47:13.529Z,36.33
2023-02-25T09:50:01.270Z,36.67
2023-02-25T09:52:55.676Z,36.95
2023-02-25T09:55:41.708Z,36.39
2023-02-25T09:58:12.088Z,37.38
2023-02-25T10:00:59.960Z,37.05
2023-02-25T10:03:36.619Z,36.63
2023-02-25T10:06:39.312Z,36.99
2023-02-25T10:09:28.575Z,37.17
2023-02-25T10:12:14.389Z,36.70
2023-02-25T10:15:15.071Z,37.23
2023-02-25T10:17:51.448Z,37.05
2023-02-25T10:20:35.503Z,37.18
2023-02-25T10:23:08.349Z,38.66
2023-02-25T10:25:43.391Z,39.01
2023-02-25T10:28:17.851Z,39.03
2023-02-25T10:31:15.682Z,39.77
2023-02-25T10:33:46.994Z,38.88
2023-02-25T10:36:28.430Z,38.66
2023-02-25T10:38:56.395Z,38.56
2023-02-25T10:41:29.140Z,40.07
2023-02-25T10:43:57.106Z,39.24
2023-02-25T10:46:34.973Z,40.73
2023-02-25T10:49:16.294Z,40.30
2023-02-25T10:52:10.683Z,39.42
2023-02-25T10:54:52.931Z,39.76
2023-02-25T10:57:40.342Z,40.41
2023-02-25T11:00:29.869Z,40.02
2023-02-25T11:03:01.721Z,39.95
2023-02-25T11:05:41.071Z,40.55
2023-02-25T11:08:29.045Z,40.12
2023-02-25T11:11:26.035Z,39.30
2023-02-25T11:14:15.591Z,39.84
2023-02-25T11:16:46.194Z,39.81
2023-02-25T11:19:23.831Z,39.53
2023-02-25T11:21:52.737Z,39.47
2023-02-25T11:24:33.919Z,40.12
2023-02-25T11:27:04.545Z,39.48
2023-02-25T11:29:40.117Z,40.69
2023-02-25T11:32:12.631Z,40.94
2023-02-25T11:34:51.711Z,40.83
2023-02-25T11:37:43.139Z,40.61
2023-02-25T11:40:34.476Z,40.99
2023-02-25T11:43:19.138Z,44.28
2023-02-25T11:46:00.770Z,44.32
2023-02-25T11:48:31.449Z,43.75
2023-02-25T11:51:17.186Z,43.74
2023-02-25T11:54:04.895Z,44.55
2023-02-25T11:56:58.054Z,44.45
2023-02-25T11:59:40.152Z,44.43
2023-02-25T12:02:29.112Z,41.93
2023-02-25T12:05:15.631Z,41.30
2023-02-25T12:08:17.206Z,41.28
2023-02-25T12:10:56.367Z,41.41
2023-02-25T12:14:03.474Z,41.95
2023-02-25T12:17:06.295Z,44.05
2023-02-25T12:19:34.246Z,42.04
2023-02-25T12:22:37.138Z,42.83
2023-02-25T12:25:28.628Z,42.16
2023-02-25T12:28:24.971Z,42.30
2023-02-25T12:31:12.710Z,42.56
2023-02-25T12:33:46.135Z,41.44
2023-02-25T12:36:28.616Z,41.76
2023-02-25T12:39:09.487Z,41.59
2023-02-25T12:41:48.544Z,40.78
2023-02-25T12:44:57.160Z,41.46
2023-02-25T12:47:46.538Z,40.09
2023-02-25T12:50:41.605Z,40.63
2023-02-25T12:53:18.017Z,41.66
2023-02-25T12:56:22.753Z,41.85
2023-02-25T12:59:14.993Z,41.72
2023-02-25T13:02:17.231Z,40.76
2023-02-25T13:04:52.072Z,41.00
2023-02-25T13:07:29.756Z,41.33
2023-02-25T13:10:03.507Z,42.15
2023-02-25T13:12:41.291Z,41.83
2023-02-25T13:15:22.170Z,41.96
2023-02-25T13:18:17.446Z,42.55
2023-02-25T13:21:06.404Z,41.73
2023-02-25T13:23:54.934Z,42.13
2023-02-25T13:26:41.309Z,42.17
2023-02-25T13:29:47.971Z,41.96
2023-02-25T13:32:46.548Z,41.79
2023-02-25T13:35:29.519Z,43.03
2023-02-25T13:38:09.308Z,43.24
2023-02-25T13:40:57.036Z,41.96
2023-02-25T13:43:55.537Z,42.07
2023-02-25T13:46:53.908Z,42.09
2023-02-25T13:49:31.411Z,41.40
2023-02-25T13:52:24.801Z,42.21
2023-02-25T13:54:56.705Z,41.96
2023-02-25T13:58:03.513Z,43.56
2023-02-25T14:01:00.418Z,42.76
2023-02-25T14:04:05.414Z,42.50
2023-02-25T14:07:00.255Z,43.04
2023-02-25T14:09:27.898Z,42.63
2023-02-25T14:12:19.958Z,43.02
2023-02-25T14:15:21.956Z,43.58
2023-02-25T14:18:21.677Z,43.36
2023-02-25T14:20:55.200Z,43.10
2023-02-25T14:23:30.956Z,42.91
2023-02-25T14:26:20.604Z,42.78
2023-02-25T14:28:55.918Z,44.15
2023-02-25T14:31:46.316Z,43.21
2023-02-25T14:34:41.786Z,43.67
2023-02-25T14:37:31.133Z,43.88
2023-02-25T14:40:15.964Z,43.44
2023-02-25T14:42:54.224Z,43.95
2023-02-25T14:45:38.725Z,43.80
2023-02-25T14:48:19.423Z,43.43
2023-02-25T14:51:02.424Z,44.29
2023-02-25T14:53:53.050Z,43.86
2023-02-25T14:56:29.616Z,43.07
2023-02-25T14:58:59.997Z,42.82
2023-02-25T15:01:44.944Z,43.01
2023-02-25T15:04:38.383Z,43.09
2023-02-25T15:07:15.185Z,42.64
2023-02-25T15:10:10.800Z,44.07
2023-02-25T15:13:06.054Z,43.50
2023-02-25T15:15:47.050Z,42.94
2023-02-25T15:18:45.368Z,44.00
2023-02-25T15:21:46.908Z,43.44
2023-02-25T15:24:23.847Z,42.62
2023-02-25T15:26:52.313Z,42.29
2023-02-25T15:29:28.945Z,42.84
2023-02-25T15:32:25.328Z,43.02
2023-02-25T15:35:14.338Z,42.96
2023-02-25T15:38:15.064Z,42.74
2023-02-25T15:40:55.904Z,42.86
2023-02-25T15:43:43.032Z,43.59
2023-02-25T15:46:10.609Z,42.49
2023-02-25T15:48:40.176Z,43.01
2023-02-25T15:51:32.138Z,42.67
2023-02-25T15:54:00.138Z,42.55
2023-02-25T15:56:46.178Z,43.50
2023-02-25T15:59:42.566Z,43.81
2023-02-25T16:02:34.042Z,43.74
2023-02-25T16:05:06.237Z,43.29
2023-02-25T16:07:50.078Z,43.51
2023-02-25T16:10:42.544Z,43.71
2023-02-25T16:13:27.012Z,43.54
2023-02-25T16:16:00.084Z,43.24
2023-02-25T16:18:48.112Z,43.53
2023-02-25T16:21:19.963Z,44.66
2023-02-25T16:23:47.756Z,43.52
2023-02-25T16:26:40.503Z,43.99
2023-02-25T16:29:35.953Z,43.75
2023-02-25T16:32:18.799Z,42.97
2023-02-25T16:35:10.182Z,43.93
2023-02-25T16:41:15.219Z,43.25
2023-02-25T16:43:45.017Z,43.06
2023-02-25T16:46:17.796Z,42.92
2023-02-25T16:48:52.719Z,42.84
2023-02-25T16:51:32.298Z,42.86
2023-02-25T16:54:22.840Z,42.57
2023-02-25T16:56:55.493Z,42.51
2023-02-25T16:59:24.481Z,42.67
2023-02-25T17:01:59.149Z,42.30
2023-02-25T17:04:35.679Z,43.12
2023-02-25T17:07:17.278Z,42.65
2023-02-25T17:09:50.725Z,43.10
2023-02-25T17:12:37.835Z,43.37
2023-02-25T17:15:14.807Z,42.68
2023-02-25T17:17:44.809Z,42.25
2023-02-25T17:20:25.051Z,42.53
2023-02-25T17:22:53.050Z,42.48
2023-02-25T17:25:24.492Z,42.98
2023-02-25T17:27:52.121Z,42.67
2023-02-25T17:30:40.237Z,43.07
2023-02-25T17:33:26.762Z,43.27
2023-02-25T17:35:59.722Z,42.62
2023-02-25T17:38:29.538Z,42.98
2023-02-25T17:40:57.532Z,42.62
2023-02-25T17:43:33.474Z,43.00
2023-02-25T17:46:24.542Z,42.94
2023-02-25T17:48:56.155Z,44.30
2023-02-25T17:51:39.076Z,44.34
2023-02-25T17:54:09.768Z,43.92
2023-02-25T17:56:38.309Z,44.16
2023-02-25T17:59:28.799Z,45.80
2023-02-25T18:02:01.337Z,45.65
2023-02-25T18:04:36.495Z,46.77
2023-02-25T18:07:47.881Z,46.22
2023-02-25T18:10:48.798Z,46.67
2023-02-25T18:13:21.691Z,48.53
2023-02-25T18:16:09.538Z,48.30
2023-02-25T18:18:37.269Z,51.09
2023-02-25T18:21:12.011Z,50.33
2023-02-25T18:23:41.060Z,52.47
2023-02-25T18:26:21.091Z,51.85
2023-02-25T18:28:48.793Z,50.27
2023-02-25T18:31:18.566Z,51.94
2023-02-25T18:33:50.127Z,52.19
2023-02-25T18:36:24.467Z,53.01
2023-02-25T18:38:55.871Z,52.47
2023-02-25T18:41:23.536Z,56.43
2023-02-25T18:43:52.237Z,52.91
2023-02-25T18:46:19.899Z,50.95
2023-02-25T18:48:47.530Z,51.41
2023-02-25T18:51:15.495Z,53.85
2023-02-25T18:53:43.069Z,52.57
2023-02-25T18:56:16.955Z,52.65
2023-02-25T18:58:44.914Z,48.86
2023-02-25T19:01:24.268Z,51.10
2023-02-25T19:03:52.307Z,50.67
2023-02-25T19:06:20.046Z,49.15
2023-02-25T19:08:47.805Z,49.11
2023-02-25T19:11:30.252Z,50.52
2023-02-25T19:13:58.042Z,49.81
2023-02-25T19:16:25.907Z,50.91
2023-02-25T19:18:53.809Z,48.84
2023-02-25T19:21:22.038Z,51.44
2023-02-25T19:23:54.083Z,50.99
2023-02-25T19:26:22.345Z,50.21
2023-02-25T19:28:50.013Z,49.08
2023-02-25T19:31:18.211Z,48.87
2023-02-25T19:33:46.168Z,48.35
2023-02-25T19:36:13.782Z,46.89
2023-02-25T19:38:41.484Z,48.52
2023-02-25T19:41:10.072Z,49.34
2023-02-25T19:43:37.565Z,47.72
2023-02-25T19:46:08.738Z,48.40
2023-02-25T19:48:36.821Z,48.53
2023-02-25T19:51:08.590Z,53.95
2023-02-25T19:53:38.110Z,58.63
2023-02-25T19:56:08.237Z,60.87
2023-02-25T19:58:35.885Z,61.49
2023-02-25T20:01:09.110Z,63.88
2023-02-25T20:03:37.063Z,63.80
2023-02-25T20:06:07.268Z,66.26
2023-02-25T20:08:37.153Z,66.98
2023-02-25T20:11:10.212Z,67.95
2023-02-25T20:13:38.892Z,67.40
2023-02-25T20:16:06.904Z,68.04
2023-02-25T20:18:34.702Z,68.82
2023-02-25T20:21:02.224Z,69.58
2023-02-25T20:23:31.043Z,70.42
2023-02-25T20:26:10.910Z,72.63
2023-02-25T20:28:39.654Z,70.88
2023-02-25T20:31:11.671Z,71.32
2023-02-25T20:33:39.806Z,71.26
2023-02-25T20:36:42.613Z,70.85
2023-02-25T20:39:16.314Z,70.21
2023-02-25T20:41:45.830Z,70.67
2023-02-25T20:44:14.147Z,71.66
2023-02-25T20:46:43.029Z,72.51
2023-02-25T20:49:20.060Z,72.58
2023-02-25T20:51:48.705Z,72.84
2023-02-25T20:54:18.380Z,73.12
2023-02-25T20:56:46.045Z,72.70
2023-02-25T20:59:14.753Z,74.63
2023-02-25T21:01:42.861Z,75.77
2023-02-25T21:04:10.825Z,76.99
2023-02-25T21:06:38.820Z,76.42
2023-02-25T21:09:07.526Z,76.46
2023-02-25T21:11:35.729Z,76.91
2023-02-25T21:14:03.542Z,77.66
2023-02-25T21:16:32.715Z,77.36
2023-02-25T21:19:01.482Z,78.75
2023-02-25T21:21:31.958Z,79.77
2023-02-25T21:23:59.470Z,78.71
2023-02-25T21:26:27.026Z,79.85
2023-02-25T21:28:54.560Z,80.88
2023-02-25T21:31:22.209Z,82.46
2023-02-25T21:33:49.800Z,81.50
2023-02-25T21:36:17.592Z,81.72
2023-02-25T21:38:45.219Z,83.07
2023-02-25T21:41:14.811Z,85.96
2023-02-25T21:43:42.966Z,85.83
2023-02-25T21:46:13.858Z,88.54
2023-02-25T21:48:42.317Z,89.22
2023-02-25T21:51:19.316Z,90.27
2023-02-25T21:53:47.011Z,89.78
2023-02-25T21:56:17.234Z,91.12
2023-02-25T21:58:45.357Z,92.17
2023-02-25T22:01:20.503Z,92.49
2023-02-25T22:03:48.557Z,92.46
2023-02-25T22:06:16.844Z,91.60
2023-02-25T22:08:46.125Z,93.20
2023-02-25T22:11:19.463Z,93.25
2023-02-25T22:13:48.957Z,93.98
2023-02-25T22:16:17.234Z,93.73
2023-02-25T22:18:45.299Z,94.94
2023-02-25T22:21:15.887Z,97.24
2023-02-25T22:23:44.259Z,97.25
2023-02-25T22:26:15.249Z,98.17
2023-02-25T22:28:43.955Z,99.24
2023-02-25T22:31:14.228Z,99.93
2023-02-25T22:33:42.235Z,99.89
2023-02-25T22:36:11.456Z,98.96
2023-02-25T22:38:41.785Z,98.99
2023-02-25T22:41:29.736Z,100.00
2023-02-25T22:44:00.840Z,99.68
2023-02-25T22:46:31.042Z,100.00
2023-02-25T22:48:59.378Z,99.82
2023-02-25T22:51:33.204Z,99.00
2023-02-25T22:54:00.837Z,100.00
2023-02-25T22:56:28.721Z,100.00
2023-02-25T22:58:56.585Z,100.00
2023-02-25T23:01:25.591Z,100.00
2023-02-25T23:03:54.671Z,100.00
2023-02-25T23:06:34.110Z,100.00
2023-02-25T23:09:09.967Z,99.12
2023-02-25T23:11:39.957Z,99.87
2023-02-25T23:14:07.524Z,100.00
2023-02-25T23:16:40.638Z,100.00
2023-02-25T23:19:10.745Z,97.65
2023-02-25T23:21:41.488Z,97.76
2023-02-25T23:24:09.971Z,99.78
2023-02-25T23:26:40.825Z,100.00
2023-02-25T23:29:10.828Z,100.00
2023-02-25T23:31:43.137Z,100.00
2023-02-25T23:34:13.791Z,100.00
2023-02-25T23:36:43.724Z,100.00
2023-02-25T23:39:14.059Z,100.00
2023-02-25T23:41:42.462Z,100.00
2023-02-25T23:44:12.042Z,100.00
2023-02-25T23:46:40.152Z,100.00
2023-02-25T23:49:07.972Z,100.00
2023-02-25T23:51:36.664Z,100.00
2023-02-25T23:54:06.446Z,100.00
2023-02-25T23:56:35.673Z,97.19
2023-02-25T23:59:03.205Z,96.09
